sensor_id;sensor_type;location;lat;lon;timestamp;P1;durP1;ratioP1;P2;durP2;ratioP2
27223;SDS011;14965;50.660;13.226;2023-04-02T00:02:45;8.23;;;4.80;;
27223;SDS011;14965;50.660;13.226;2023-04-02T00:05:39;5.10;;;4.25;;
27223;SDS011;14965;50.660;13.226;2023-04-02T00:08:16;6.05;;;4.45;;
27223;SDS011;14965;50.660;13.226;2023-04-02T00:10:47;5.70;;;4.38;;
27223;SDS011;14965;50.660;13.226;2023-04-02T00:13:21;6.15;;;4.18;;
27223;SDS011;14965;50.660;13.226;2023-04-02T00:15:56;6.45;;;3.97;;
27223;SDS011;14965;50.660;13.226;2023-04-02T00:18:24;5.38;;;4.30;;
27223;SDS011;14965;50.660;13.226;2023-04-02T00:20:52;5.90;;;4.40;;
27223;SDS011;14965;50.660;13.226;2023-04-02T00:23:31;5.43;;;4.63;;
27223;SDS011;14965;50.660;13.226;2023-04-02T00:26:04;8.02;;;6.00;;
27223;SDS011;14965;50.660;13.226;2023-04-02T00:28:44;9.80;;;5.60;;
27223;SDS011;14965;50.660;13.226;2023-04-02T00:31:11;8.88;;;5.80;;
27223;SDS011;14965;50.660;13.226;2023-04-02T00:33:37;8.82;;;5.80;;
27223;SDS011;14965;50.660;13.226;2023-04-02T00:36:04;5.88;;;4.72;;
27223;SDS011;14965;50.660;13.226;2023-04-02T00:38:32;7.55;;;4.93;;
27223;SDS011;14965;50.660;13.226;2023-04-02T00:41:00;5.10;;;4.35;;
27223;SDS011;14965;50.660;13.226;2023-04-02T00:43:31;9.05;;;6.57;;
27223;SDS011;14965;50.660;13.226;2023-04-02T00:46:02;7.22;;;5.93;;
27223;SDS011;14965;50.660;13.226;2023-04-02T00:48:39;8.75;;;5.50;;
27223;SDS011;14965;50.660;13.226;2023-04-02T00:51:15;10.23;;;6.60;;
27223;SDS011;14965;50.660;13.226;2023-04-02T00:53:47;7.60;;;5.95;;
27223;SDS011;14965;50.660;13.226;2023-04-02T00:56:18;9.23;;;6.55;;
27223;SDS011;14965;50.660;13.226;2023-04-02T00:58:55;7.57;;;6.25;;
27223;SDS011;14965;50.660;13.226;2023-04-02T01:01:22;8.40;;;5.97;;
27223;SDS011;14965;50.660;13.226;2023-04-02T01:03:55;7.70;;;6.35;;
27223;SDS011;14965;50.660;13.226;2023-04-02T01:08:59;9.20;;;6.60;;
27223;SDS011;14965;50.660;13.226;2023-04-02T01:11:54;6.95;;;5.60;;
27223;SDS011;14965;50.660;13.226;2023-04-02T01:14:42;10.90;;;7.07;;
27223;SDS011;14965;50.660;13.226;2023-04-02T01:17:19;8.05;;;5.82;;
27223;SDS011;14965;50.660;13.226;2023-04-02T01:23:24;4.47;;;3.00;;
27223;SDS011;14965;50.660;13.226;2023-04-02T01:26:00;2.75;;;2.15;;
27223;SDS011;14965;50.660;13.226;2023-04-02T01:28:55;2.13;;;1.80;;
27223;SDS011;14965;50.660;13.226;2023-04-02T01:31:30;2.65;;;1.58;;
27223;SDS011;14965;50.660;13.226;2023-04-02T01:33:58;2.22;;;1.10;;
27223;SDS011;14965;50.660;13.226;2023-04-02T01:36:28;2.13;;;1.42;;
27223;SDS011;14965;50.660;13.226;2023-04-02T01:39:09;1.35;;;1.10;;
27223;SDS011;14965;50.660;13.226;2023-04-02T01:41:52;1.90;;;1.20;;
27223;SDS011;14965;50.660;13.226;2023-04-02T01:44:31;2.03;;;1.50;;
27223;SDS011;14965;50.660;13.226;2023-04-02T01:47:13;2.60;;;1.60;;
27223;SDS011;14965;50.660;13.226;2023-04-02T01:49:44;1.83;;;1.50;;
27223;SDS011;14965;50.660;13.226;2023-04-02T01:52:12;2.72;;;1.92;;
27223;SDS011;14965;50.660;13.226;2023-04-02T01:54:44;2.60;;;2.17;;
27223;SDS011;14965;50.660;13.226;2023-04-02T01:57:15;3.95;;;2.88;;
27223;SDS011;14965;50.660;13.226;2023-04-02T01:59:42;3.47;;;2.63;;
27223;SDS011;14965;50.660;13.226;2023-04-02T02:02:09;6.50;;;3.20;;
27223;SDS011;14965;50.660;13.226;2023-04-02T02:04:37;5.95;;;3.63;;
27223;SDS011;14965;50.660;13.226;2023-04-02T02:07:10;5.15;;;3.67;;
27223;SDS011;14965;50.660;13.226;2023-04-02T02:09:41;6.10;;;4.20;;
27223;SDS011;14965;50.660;13.226;2023-04-02T02:12:12;6.20;;;3.67;;
27223;SDS011;14965;50.660;13.226;2023-04-02T02:14:49;8.75;;;4.10;;
27223;SDS011;14965;50.660;13.226;2023-04-02T02:17:17;7.30;;;4.50;;
27223;SDS011;14965;50.660;13.226;2023-04-02T02:19:52;5.88;;;4.13;;
27223;SDS011;14965;50.660;13.226;2023-04-02T02:22:25;10.75;;;5.45;;
27223;SDS011;14965;50.660;13.226;2023-04-02T02:24:55;11.68;;;5.00;;
27223;SDS011;14965;50.660;13.226;2023-04-02T02:27:36;8.70;;;5.40;;
27223;SDS011;14965;50.660;13.226;2023-04-02T02:30:23;9.80;;;5.10;;
27223;SDS011;14965;50.660;13.226;2023-04-02T02:32:55;9.38;;;5.45;;
27223;SDS011;14965;50.660;13.226;2023-04-02T02:35:30;7.15;;;5.18;;
27223;SDS011;14965;50.660;13.226;2023-04-02T02:38:06;9.18;;;5.40;;
27223;SDS011;14965;50.660;13.226;2023-04-02T02:41:06;9.68;;;5.55;;
27223;SDS011;14965;50.660;13.226;2023-04-02T02:43:44;10.05;;;5.60;;
27223;SDS011;14965;50.660;13.226;2023-04-02T02:46:27;8.77;;;4.78;;
27223;SDS011;14965;50.660;13.226;2023-04-02T02:49:21;8.98;;;5.03;;
27223;SDS011;14965;50.660;13.226;2023-04-02T02:52:11;10.98;;;5.78;;
27223;SDS011;14965;50.660;13.226;2023-04-02T02:54:45;16.20;;;5.75;;
27223;SDS011;14965;50.660;13.226;2023-04-02T02:57:17;37.85;;;6.90;;
27223;SDS011;14965;50.660;13.226;2023-04-02T02:59:55;146.07;;;8.52;;
27223;SDS011;14965;50.660;13.226;2023-04-02T03:03:03;33.05;;;5.70;;
27223;SDS011;14965;50.660;13.226;2023-04-02T03:05:42;14.73;;;5.60;;
27223;SDS011;14965;50.660;13.226;2023-04-02T03:08:25;12.40;;;5.90;;
27223;SDS011;14965;50.660;13.226;2023-04-02T03:12:10;13.45;;;5.63;;
27223;SDS011;14965;50.660;13.226;2023-04-02T03:15:27;9.18;;;5.40;;
27223;SDS011;14965;50.660;13.226;2023-04-02T03:18:10;8.68;;;5.90;;
27223;SDS011;14965;50.660;13.226;2023-04-02T03:24:54;8.18;;;5.20;;
27223;SDS011;14965;50.660;13.226;2023-04-02T03:27:29;7.07;;;5.00;;
27223;SDS011;14965;50.660;13.226;2023-04-02T03:30:03;8.85;;;5.28;;
27223;SDS011;14965;50.660;13.226;2023-04-02T03:32:50;8.13;;;5.65;;
27223;SDS011;14965;50.660;13.226;2023-04-02T03:35:27;8.43;;;5.45;;
27223;SDS011;14965;50.660;13.226;2023-04-02T03:38:02;8.73;;;5.35;;
27223;SDS011;14965;50.660;13.226;2023-04-02T03:44:02;6.25;;;4.60;;
27223;SDS011;14965;50.660;13.226;2023-04-02T03:46:52;8.45;;;5.35;;
27223;SDS011;14965;50.660;13.226;2023-04-02T03:49:42;8.85;;;5.30;;
27223;SDS011;14965;50.660;13.226;2023-04-02T03:52:34;6.72;;;4.70;;
27223;SDS011;14965;50.660;13.226;2023-04-02T03:55:36;7.13;;;4.60;;
27223;SDS011;14965;50.660;13.226;2023-04-02T03:58:36;5.57;;;4.20;;
27223;SDS011;14965;50.660;13.226;2023-04-02T04:01:14;9.18;;;5.03;;
27223;SDS011;14965;50.660;13.226;2023-04-02T04:04:23;7.93;;;5.05;;
27223;SDS011;14965;50.660;13.226;2023-04-02T04:07:18;7.45;;;4.35;;
27223;SDS011;14965;50.660;13.226;2023-04-02T04:10:05;7.95;;;4.95;;
27223;SDS011;14965;50.660;13.226;2023-04-02T04:12:53;9.90;;;5.22;;
27223;SDS011;14965;50.660;13.226;2023-04-02T04:19:35;108.47;;;9.07;;
27223;SDS011;14965;50.660;13.226;2023-04-02T04:22:40;190.00;;;11.23;;
27223;SDS011;14965;50.660;13.226;2023-04-02T04:25:17;75.63;;;8.85;;
27223;SDS011;14965;50.660;13.226;2023-04-02T04:27:54;452.50;;;17.58;;
27223;SDS011;14965;50.660;13.226;2023-04-02T04:30:51;690.88;;;21.58;;
27223;SDS011;14965;50.660;13.226;2023-04-02T04:36:39;292.38;;;12.88;;
27223;SDS011;14965;50.660;13.226;2023-04-02T05:25:28;559.75;;;20.27;;
27223;SDS011;14965;50.660;13.226;2023-04-02T05:28:37;298.90;;;12.88;;
27223;SDS011;14965;50.660;13.226;2023-04-02T05:40:26;421.52;;;17.13;;
27223;SDS011;14965;50.660;13.226;2023-04-02T05:42:30;628.35;;;19.52;;
27223;SDS011;14965;50.660;13.226;2023-04-02T05:45:05;299.48;;;12.77;;
27223;SDS011;14965;50.660;13.226;2023-04-02T05:48:00;284.52;;;12.27;;
27223;SDS011;14965;50.660;13.226;2023-04-02T05:51:08;427.08;;;15.82;;
27223;SDS011;14965;50.660;13.226;2023-04-02T05:53:51;47.97;;;7.03;;
27223;SDS011;14965;50.660;13.226;2023-04-02T05:56:39;8.63;;;5.35;;
27223;SDS011;14965;50.660;13.226;2023-04-02T06:02:58;9.43;;;4.80;;
27223;SDS011;14965;50.660;13.226;2023-04-02T06:10:16;5.40;;;3.97;;
27223;SDS011;14965;50.660;13.226;2023-04-02T06:12:52;5.28;;;4.55;;
27223;SDS011;14965;50.660;13.226;2023-04-02T06:19:11;11.65;;;6.22;;
27223;SDS011;14965;50.660;13.226;2023-04-02T06:22:23;6.85;;;5.07;;
27223;SDS011;14965;50.660;13.226;2023-04-02T06:25:10;8.73;;;6.00;;
27223;SDS011;14965;50.660;13.226;2023-04-02T06:28:02;8.93;;;5.63;;
27223;SDS011;14965;50.660;13.226;2023-04-02T06:30:38;8.95;;;5.85;;
27223;SDS011;14965;50.660;13.226;2023-04-02T06:33:11;9.07;;;6.28;;
27223;SDS011;14965;50.660;13.226;2023-04-02T06:35:39;10.00;;;7.20;;
27223;SDS011;14965;50.660;13.226;2023-04-02T06:38:10;23.10;;;8.97;;
27223;SDS011;14965;50.660;13.226;2023-04-02T06:40:48;10.80;;;7.53;;
27223;SDS011;14965;50.660;13.226;2023-04-02T06:43:23;28.50;;;8.50;;
27223;SDS011;14965;50.660;13.226;2023-04-02T06:46:04;17.60;;;8.35;;
27223;SDS011;14965;50.660;13.226;2023-04-02T06:48:40;39.47;;;8.32;;
27223;SDS011;14965;50.660;13.226;2023-04-02T06:51:09;14.93;;;6.22;;
27223;SDS011;14965;50.660;13.226;2023-04-02T06:53:41;7.60;;;5.70;;
27223;SDS011;14965;50.660;13.226;2023-04-02T06:56:20;5.55;;;4.07;;
27223;SDS011;14965;50.660;13.226;2023-04-02T06:59:01;4.03;;;3.50;;
27223;SDS011;14965;50.660;13.226;2023-04-02T07:01:29;3.97;;;3.50;;
27223;SDS011;14965;50.660;13.226;2023-04-02T07:04:03;4.53;;;3.60;;
27223;SDS011;14965;50.660;13.226;2023-04-02T07:06:30;4.88;;;3.75;;
27223;SDS011;14965;50.660;13.226;2023-04-02T07:08:56;6.05;;;4.50;;
27223;SDS011;14965;50.660;13.226;2023-04-02T07:11:28;5.45;;;4.43;;
27223;SDS011;14965;50.660;13.226;2023-04-02T07:14:12;4.90;;;4.30;;
27223;SDS011;14965;50.660;13.226;2023-04-02T07:16:38;5.88;;;5.00;;
27223;SDS011;14965;50.660;13.226;2023-04-02T07:19:09;6.53;;;5.65;;
27223;SDS011;14965;50.660;13.226;2023-04-02T07:21:45;7.17;;;5.70;;
27223;SDS011;14965;50.660;13.226;2023-04-02T07:24:16;7.03;;;5.88;;
27223;SDS011;14965;50.660;13.226;2023-04-02T07:26:45;9.15;;;7.07;;
27223;SDS011;14965;50.660;13.226;2023-04-02T07:29:14;12.07;;;7.00;;
27223;SDS011;14965;50.660;13.226;2023-04-02T07:31:51;13.00;;;8.70;;
27223;SDS011;14965;50.660;13.226;2023-04-02T07:34:18;11.63;;;8.45;;
27223;SDS011;14965;50.660;13.226;2023-04-02T07:36:56;11.75;;;9.05;;
27223;SDS011;14965;50.660;13.226;2023-04-02T07:39:22;23.98;;;9.98;;
27223;SDS011;14965;50.660;13.226;2023-04-02T07:42:02;20.00;;;9.75;;
27223;SDS011;14965;50.660;13.226;2023-04-02T07:44:46;29.83;;;10.70;;
27223;SDS011;14965;50.660;13.226;2023-04-02T07:47:12;25.25;;;11.52;;
27223;SDS011;14965;50.660;13.226;2023-04-02T07:49:39;80.40;;;10.15;;
27223;SDS011;14965;50.660;13.226;2023-04-02T07:52:05;92.43;;;10.38;;
27223;SDS011;14965;50.660;13.226;2023-04-02T07:54:31;137.15;;;11.95;;
27223;SDS011;14965;50.660;13.226;2023-04-02T07:56:57;45.40;;;8.90;;
27223;SDS011;14965;50.660;13.226;2023-04-02T07:59:23;32.42;;;9.57;;
27223;SDS011;14965;50.660;13.226;2023-04-02T08:01:50;8.55;;;7.05;;
27223;SDS011;14965;50.660;13.226;2023-04-02T08:04:37;9.90;;;6.53;;
27223;SDS011;14965;50.660;13.226;2023-04-02T08:07:04;8.75;;;6.50;;
27223;SDS011;14965;50.660;13.226;2023-04-02T08:09:30;10.38;;;7.40;;
27223;SDS011;14965;50.660;13.226;2023-04-02T08:11:56;12.32;;;7.68;;
27223;SDS011;14965;50.660;13.226;2023-04-02T08:14:22;13.55;;;8.32;;
27223;SDS011;14965;50.660;13.226;2023-04-02T08:16:49;10.00;;;7.20;;
27223;SDS011;14965;50.660;13.226;2023-04-02T08:19:18;13.18;;;7.65;;
27223;SDS011;14965;50.660;13.226;2023-04-02T08:21:46;71.25;;;26.90;;
27223;SDS011;14965;50.660;13.226;2023-04-02T08:24:13;9.63;;;6.38;;
27223;SDS011;14965;50.660;13.226;2023-04-02T08:26:39;10.30;;;6.43;;
27223;SDS011;14965;50.660;13.226;2023-04-02T08:29:05;8.98;;;6.25;;
27223;SDS011;14965;50.660;13.226;2023-04-02T08:31:31;11.73;;;6.85;;
27223;SDS011;14965;50.660;13.226;2023-04-02T08:33:56;12.57;;;7.13;;
27223;SDS011;14965;50.660;13.226;2023-04-02T08:36:24;11.25;;;7.85;;
27223;SDS011;14965;50.660;13.226;2023-04-02T08:38:56;10.48;;;7.22;;
27223;SDS011;14965;50.660;13.226;2023-04-02T08:41:22;9.70;;;6.32;;
27223;SDS011;14965;50.660;13.226;2023-04-02T08:44:01;11.55;;;8.30;;
27223;SDS011;14965;50.660;13.226;2023-04-02T08:46:46;17.25;;;10.68;;
27223;SDS011;14965;50.660;13.226;2023-04-02T08:49:18;13.82;;;10.10;;
27223;SDS011;14965;50.660;13.226;2023-04-02T08:51:53;63.08;;;12.48;;
27223;SDS011;14965;50.660;13.226;2023-04-02T08:54:21;418.20;;;19.35;;
27223;SDS011;14965;50.660;13.226;2023-04-02T08:56:53;725.83;;;28.92;;
27223;SDS011;14965;50.660;13.226;2023-04-02T08:59:29;564.45;;;24.27;;
27223;SDS011;14965;50.660;13.226;2023-04-02T09:02:01;455.23;;;23.35;;
27223;SDS011;14965;50.660;13.226;2023-04-02T09:04:48;401.42;;;23.17;;
27223;SDS011;14965;50.660;13.226;2023-04-02T09:07:15;771.45;;;32.03;;
27223;SDS011;14965;50.660;13.226;2023-04-02T09:09:44;408.92;;;21.67;;
27223;SDS011;14965;50.660;13.226;2023-04-02T09:12:15;153.70;;;15.93;;
27223;SDS011;14965;50.660;13.226;2023-04-02T09:14:44;410.95;;;23.13;;
27223;SDS011;14965;50.660;13.226;2023-04-02T09:17:22;637.05;;;28.67;;
27223;SDS011;14965;50.660;13.226;2023-04-02T09:22:20;286.50;;;18.40;;
27223;SDS011;14965;50.660;13.226;2023-04-02T09:24:51;514.53;;;26.88;;
27223;SDS011;14965;50.660;13.226;2023-04-02T09:27:18;497.77;;;34.47;;
27223;SDS011;14965;50.660;13.226;2023-04-02T09:29:48;701.80;;;38.65;;
27223;SDS011;14965;50.660;13.226;2023-04-02T09:32:20;561.45;;;30.50;;
27223;SDS011;14965;50.660;13.226;2023-04-02T09:35:07;374.50;;;29.48;;
27223;SDS011;14965;50.660;13.226;2023-04-02T09:37:39;65.07;;;12.55;;
27223;SDS011;14965;50.660;13.226;2023-04-02T09:43:04;29.75;;;14.82;;
27223;SDS011;14965;50.660;13.226;2023-04-02T09:45:35;25.05;;;11.07;;
27223;SDS011;14965;50.660;13.226;2023-04-02T09:48:03;22.38;;;12.90;;
27223;SDS011;14965;50.660;13.226;2023-04-02T09:50:47;206.00;;;16.83;;
27223;SDS011;14965;50.660;13.226;2023-04-02T09:53:25;121.40;;;15.75;;
27223;SDS011;14965;50.660;13.226;2023-04-02T09:56:08;70.57;;;16.52;;
27223;SDS011;14965;50.660;13.226;2023-04-02T09:58:37;17.50;;;11.88;;
27223;SDS011;14965;50.660;13.226;2023-04-02T10:01:04;14.50;;;11.07;;
27223;SDS011;14965;50.660;13.226;2023-04-02T10:03:30;15.25;;;9.05;;
27223;SDS011;14965;50.660;13.226;2023-04-02T10:06:05;11.60;;;8.63;;
27223;SDS011;14965;50.660;13.226;2023-04-02T10:08:34;16.88;;;9.38;;
27223;SDS011;14965;50.660;13.226;2023-04-02T10:11:03;14.90;;;9.20;;
27223;SDS011;14965;50.660;13.226;2023-04-02T10:13:38;12.75;;;9.00;;
27223;SDS011;14965;50.660;13.226;2023-04-02T10:16:14;9.32;;;7.10;;
27223;SDS011;14965;50.660;13.226;2023-04-02T10:18:47;11.07;;;6.35;;
27223;SDS011;14965;50.660;13.226;2023-04-02T10:21:20;9.05;;;6.20;;
27223;SDS011;14965;50.660;13.226;2023-04-02T10:23:50;9.27;;;6.25;;
27223;SDS011;14965;50.660;13.226;2023-04-02T10:26:22;9.10;;;7.05;;
27223;SDS011;14965;50.660;13.226;2023-04-02T10:29:16;11.18;;;8.00;;
27223;SDS011;14965;50.660;13.226;2023-04-02T10:32:09;10.40;;;7.63;;
27223;SDS011;14965;50.660;13.226;2023-04-02T10:34:43;12.27;;;9.02;;
27223;SDS011;14965;50.660;13.226;2023-04-02T10:37:31;20.33;;;9.50;;
27223;SDS011;14965;50.660;13.226;2023-04-02T10:40:18;17.08;;;11.13;;
27223;SDS011;14965;50.660;13.226;2023-04-02T10:42:54;17.13;;;10.75;;
27223;SDS011;14965;50.660;13.226;2023-04-02T10:45:53;13.90;;;10.43;;
27223;SDS011;14965;50.660;13.226;2023-04-02T10:48:27;13.85;;;9.90;;
27223;SDS011;14965;50.660;13.226;2023-04-02T10:51:02;12.20;;;8.05;;
27223;SDS011;14965;50.660;13.226;2023-04-02T10:53:40;10.93;;;7.72;;
27223;SDS011;14965;50.660;13.226;2023-04-02T10:56:18;9.93;;;7.22;;
27223;SDS011;14965;50.660;13.226;2023-04-02T10:58:49;12.57;;;7.97;;
27223;SDS011;14965;50.660;13.226;2023-04-02T11:01:23;14.80;;;9.00;;
27223;SDS011;14965;50.660;13.226;2023-04-02T11:03:53;13.55;;;9.35;;
27223;SDS011;14965;50.660;13.226;2023-04-02T11:06:24;10.88;;;7.72;;
27223;SDS011;14965;50.660;13.226;2023-04-02T11:08:57;14.23;;;7.80;;
27223;SDS011;14965;50.660;13.226;2023-04-02T11:11:28;14.07;;;8.10;;
27223;SDS011;14965;50.660;13.226;2023-04-02T11:14:02;11.45;;;8.82;;
27223;SDS011;14965;50.660;13.226;2023-04-02T11:16:37;10.95;;;8.75;;
27223;SDS011;14965;50.660;13.226;2023-04-02T11:19:20;12.38;;;8.70;;
27223;SDS011;14965;50.660;13.226;2023-04-02T11:21:49;12.32;;;8.07;;
27223;SDS011;14965;50.660;13.226;2023-04-02T11:24:22;13.10;;;8.05;;
27223;SDS011;14965;50.660;13.226;2023-04-02T11:27:02;17.48;;;9.18;;
27223;SDS011;14965;50.660;13.226;2023-04-02T11:29:32;15.80;;;10.20;;
27223;SDS011;14965;50.660;13.226;2023-04-02T11:32:13;14.05;;;9.82;;
27223;SDS011;14965;50.660;13.226;2023-04-02T11:38:02;19.35;;;13.70;;
27223;SDS011;14965;50.660;13.226;2023-04-02T11:41:13;18.45;;;13.40;;
27223;SDS011;14965;50.660;13.226;2023-04-02T11:44:26;15.30;;;11.38;;
27223;SDS011;14965;50.660;13.226;2023-04-02T11:46:52;16.73;;;9.70;;
27223;SDS011;14965;50.660;13.226;2023-04-02T11:52:52;16.67;;;10.98;;
27223;SDS011;14965;50.660;13.226;2023-04-02T11:55:23;11.38;;;7.57;;
27223;SDS011;14965;50.660;13.226;2023-04-02T12:01:14;11.68;;;7.40;;
27223;SDS011;14965;50.660;13.226;2023-04-02T12:04:20;11.65;;;7.53;;
27223;SDS011;14965;50.660;13.226;2023-04-02T12:07:39;14.48;;;10.52;;
27223;SDS011;14965;50.660;13.226;2023-04-02T12:10:26;11.30;;;7.88;;
27223;SDS011;14965;50.660;13.226;2023-04-02T12:12:57;16.95;;;11.27;;
27223;SDS011;14965;50.660;13.226;2023-04-02T12:18:11;25.65;;;16.75;;
27223;SDS011;14965;50.660;13.226;2023-04-02T12:20:44;29.05;;;15.85;;
27223;SDS011;14965;50.660;13.226;2023-04-02T12:23:18;30.83;;;16.40;;
27223;SDS011;14965;50.660;13.226;2023-04-02T12:25:55;33.67;;;17.42;;
27223;SDS011;14965;50.660;13.226;2023-04-02T12:28:24;49.20;;;26.80;;
27223;SDS011;14965;50.660;13.226;2023-04-02T12:31:00;50.15;;;39.25;;
27223;SDS011;14965;50.660;13.226;2023-04-02T12:33:36;34.53;;;18.52;;
27223;SDS011;14965;50.660;13.226;2023-04-02T12:36:04;25.83;;;17.27;;
27223;SDS011;14965;50.660;13.226;2023-04-02T12:38:42;27.07;;;17.13;;
27223;SDS011;14965;50.660;13.226;2023-04-02T12:41:17;32.17;;;19.38;;
27223;SDS011;14965;50.660;13.226;2023-04-02T12:43:47;23.88;;;15.88;;
27223;SDS011;14965;50.660;13.226;2023-04-02T12:46:23;25.55;;;15.43;;
27223;SDS011;14965;50.660;13.226;2023-04-02T12:48:50;26.55;;;17.45;;
27223;SDS011;14965;50.660;13.226;2023-04-02T12:51:17;24.13;;;15.27;;
27223;SDS011;14965;50.660;13.226;2023-04-02T12:53:45;20.38;;;13.40;;
27223;SDS011;14965;50.660;13.226;2023-04-02T12:56:17;17.65;;;11.73;;
27223;SDS011;14965;50.660;13.226;2023-04-02T12:58:50;26.83;;;12.95;;
27223;SDS011;14965;50.660;13.226;2023-04-02T13:01:19;21.90;;;12.52;;
27223;SDS011;14965;50.660;13.226;2023-04-02T13:04:01;19.15;;;11.52;;
27223;SDS011;14965;50.660;13.226;2023-04-02T13:06:30;15.30;;;9.68;;
27223;SDS011;14965;50.660;13.226;2023-04-02T13:08:57;19.67;;;12.35;;
27223;SDS011;14965;50.660;13.226;2023-04-02T13:11:32;16.35;;;9.85;;
27223;SDS011;14965;50.660;13.226;2023-04-02T13:14:00;21.52;;;11.23;;
27223;SDS011;14965;50.660;13.226;2023-04-02T13:16:32;15.30;;;10.20;;
27223;SDS011;14965;50.660;13.226;2023-04-02T13:19:10;18.77;;;11.55;;
27223;SDS011;14965;50.660;13.226;2023-04-02T13:21:49;17.40;;;10.90;;
27223;SDS011;14965;50.660;13.226;2023-04-02T13:24:16;20.15;;;11.15;;
27223;SDS011;14965;50.660;13.226;2023-04-02T13:26:43;16.92;;;10.27;;
27223;SDS011;14965;50.660;13.226;2023-04-02T13:29:15;19.98;;;11.38;;
27223;SDS011;14965;50.660;13.226;2023-04-02T13:31:46;14.13;;;8.85;;
27223;SDS011;14965;50.660;13.226;2023-04-02T13:34:14;19.67;;;9.80;;
27223;SDS011;14965;50.660;13.226;2023-04-02T13:36:40;14.52;;;9.80;;
27223;SDS011;14965;50.660;13.226;2023-04-02T13:39:06;16.70;;;9.18;;
27223;SDS011;14965;50.660;13.226;2023-04-02T13:41:34;15.60;;;8.88;;
27223;SDS011;14965;50.660;13.226;2023-04-02T13:44:04;14.25;;;9.02;;
27223;SDS011;14965;50.660;13.226;2023-04-02T13:46:31;15.77;;;9.07;;
27223;SDS011;14965;50.660;13.226;2023-04-02T13:48:58;17.73;;;10.10;;
27223;SDS011;14965;50.660;13.226;2023-04-02T13:51:30;17.25;;;9.93;;
27223;SDS011;14965;50.660;13.226;2023-04-02T13:54:00;16.58;;;8.77;;
27223;SDS011;14965;50.660;13.226;2023-04-02T13:56:27;17.30;;;9.00;;
27223;SDS011;14965;50.660;13.226;2023-04-02T13:58:53;15.23;;;8.63;;
27223;SDS011;14965;50.660;13.226;2023-04-02T14:01:19;17.40;;;9.40;;
27223;SDS011;14965;50.660;13.226;2023-04-02T14:03:48;15.13;;;9.32;;
27223;SDS011;14965;50.660;13.226;2023-04-02T14:06:17;15.80;;;9.88;;
27223;SDS011;14965;50.660;13.226;2023-04-02T14:09:00;17.40;;;9.20;;
27223;SDS011;14965;50.660;13.226;2023-04-02T14:11:36;16.77;;;10.00;;
27223;SDS011;14965;50.660;13.226;2023-04-02T14:14:26;16.17;;;8.45;;
27223;SDS011;14965;50.660;13.226;2023-04-02T14:17:13;17.02;;;9.20;;
27223;SDS011;14965;50.660;13.226;2023-04-02T14:20:04;16.70;;;8.98;;
27223;SDS011;14965;50.660;13.226;2023-04-02T14:22:51;13.55;;;8.82;;
27223;SDS011;14965;50.660;13.226;2023-04-02T14:25:39;17.73;;;9.77;;
27223;SDS011;14965;50.660;13.226;2023-04-02T14:28:19;18.88;;;9.50;;
27223;SDS011;14965;50.660;13.226;2023-04-02T14:30:58;15.43;;;10.05;;
27223;SDS011;14965;50.660;13.226;2023-04-02T14:33:34;15.18;;;8.70;;
27223;SDS011;14965;50.660;13.226;2023-04-02T14:36:18;12.50;;;8.52;;
27223;SDS011;14965;50.660;13.226;2023-04-02T14:38:56;16.05;;;8.95;;
27223;SDS011;14965;50.660;13.226;2023-04-02T14:41:30;13.10;;;8.80;;
27223;SDS011;14965;50.660;13.226;2023-04-02T14:44:05;18.35;;;10.77;;
27223;SDS011;14965;50.660;13.226;2023-04-02T14:46:35;32.10;;;19.30;;
27223;SDS011;14965;50.660;13.226;2023-04-02T14:49:03;11.32;;;6.85;;
27223;SDS011;14965;50.660;13.226;2023-04-02T14:51:48;11.20;;;6.85;;
27223;SDS011;14965;50.660;13.226;2023-04-02T14:54:25;12.23;;;8.07;;
27223;SDS011;14965;50.660;13.226;2023-04-02T14:56:59;12.30;;;7.25;;
27223;SDS011;14965;50.660;13.226;2023-04-02T14:59:34;11.25;;;6.10;;
27223;SDS011;14965;50.660;13.226;2023-04-02T15:02:15;16.10;;;6.13;;
27223;SDS011;14965;50.660;13.226;2023-04-02T15:04:53;12.27;;;5.43;;
27223;SDS011;14965;50.660;13.226;2023-04-02T15:07:26;10.38;;;5.13;;
27223;SDS011;14965;50.660;13.226;2023-04-02T15:10:04;31.73;;;15.38;;
27223;SDS011;14965;50.660;13.226;2023-04-02T15:12:41;16.55;;;9.45;;
